sensor_id;sensor_type;location;lat;lon;timestamp;P1;durP1;ratioP1;P2;durP2;ratioP2
27543;SDS011;17996;51.056;3.656;2023-06-01T00:01:45;29.00;;;17.23;;
27543;SDS011;17996;51.056;3.656;2023-06-01T00:04:11;22.90;;;15.95;;
27543;SDS011;17996;51.056;3.656;2023-06-01T00:06:38;28.48;;;15.93;;
27543;SDS011;17996;51.056;3.656;2023-06-01T00:09:04;24.45;;;15.32;;
27543;SDS011;17996;51.056;3.656;2023-06-01T00:11:30;29.48;;;16.17;;
27543;SDS011;17996;51.056;3.656;2023-06-01T00:13:55;21.88;;;16.15;;
27543;SDS011;17996;51.056;3.656;2023-06-01T00:16:22;29.75;;;17.88;;
27543;SDS011;17996;51.056;3.656;2023-06-01T00:18:48;27.98;;;19.73;;
27543;SDS011;17996;51.056;3.656;2023-06-01T00:21:13;25.42;;;19.90;;
27543;SDS011;17996;51.056;3.656;2023-06-01T00:23:39;30.33;;;20.33;;
27543;SDS011;17996;51.056;3.656;2023-06-01T00:26:06;29.90;;;19.98;;
27543;SDS011;17996;51.056;3.656;2023-06-01T00:28:33;28.50;;;18.05;;
27543;SDS011;17996;51.056;3.656;2023-06-01T00:30:59;28.30;;;17.60;;
27543;SDS011;17996;51.056;3.656;2023-06-01T00:33:25;28.00;;;17.33;;
27543;SDS011;17996;51.056;3.656;2023-06-01T00:35:51;25.63;;;17.52;;
27543;SDS011;17996;51.056;3.656;2023-06-01T00:38:17;26.50;;;16.25;;
27543;SDS011;17996;51.056;3.656;2023-06-01T00:40:43;22.15;;;15.80;;
27543;SDS011;17996;51.056;3.656;2023-06-01T00:43:09;23.60;;;13.95;;
27543;SDS011;17996;51.056;3.656;2023-06-01T00:45:35;22.77;;;14.05;;
27543;SDS011;17996;51.056;3.656;2023-06-01T00:48:02;24.92;;;13.90;;
27543;SDS011;17996;51.056;3.656;2023-06-01T00:50:29;19.85;;;12.98;;
27543;SDS011;17996;51.056;3.656;2023-06-01T00:52:56;19.55;;;14.15;;
27543;SDS011;17996;51.056;3.656;2023-06-01T00:55:23;25.38;;;14.38;;
27543;SDS011;17996;51.056;3.656;2023-06-01T00:57:50;23.83;;;13.95;;
27543;SDS011;17996;51.056;3.656;2023-06-01T01:00:17;22.38;;;12.80;;
27543;SDS011;17996;51.056;3.656;2023-06-01T01:02:43;17.08;;;12.90;;
27543;SDS011;17996;51.056;3.656;2023-06-01T01:05:16;23.20;;;12.63;;
27543;SDS011;17996;51.056;3.656;2023-06-01T01:08:04;21.52;;;12.88;;
27543;SDS011;17996;51.056;3.656;2023-06-01T01:10:33;24.45;;;13.40;;
27543;SDS011;17996;51.056;3.656;2023-06-01T01:13:27;17.48;;;12.40;;
27543;SDS011;17996;51.056;3.656;2023-06-01T01:18:33;21.38;;;12.82;;
27543;SDS011;17996;51.056;3.656;2023-06-01T01:21:29;22.23;;;13.35;;
27543;SDS011;17996;51.056;3.656;2023-06-01T01:29:57;23.17;;;14.15;;
27543;SDS011;17996;51.056;3.656;2023-06-01T01:32:30;28.67;;;15.82;;
27543;SDS011;17996;51.056;3.656;2023-06-01T01:34:57;28.58;;;15.70;;
27543;SDS011;17996;51.056;3.656;2023-06-01T01:37:23;24.10;;;15.75;;
27543;SDS011;17996;51.056;3.656;2023-06-01T01:39:49;25.20;;;16.60;;
27543;SDS011;17996;51.056;3.656;2023-06-01T01:42:15;23.02;;;16.23;;
27543;SDS011;17996;51.056;3.656;2023-06-01T01:44:40;29.02;;;17.02;;
27543;SDS011;17996;51.056;3.656;2023-06-01T01:47:27;25.77;;;15.90;;
27543;SDS011;17996;51.056;3.656;2023-06-01T01:50:05;26.23;;;15.25;;
27543;SDS011;17996;51.056;3.656;2023-06-01T01:52:39;24.08;;;16.83;;
27543;SDS011;17996;51.056;3.656;2023-06-01T01:55:08;28.00;;;16.52;;
27543;SDS011;17996;51.056;3.656;2023-06-01T01:57:35;28.70;;;17.05;;
27543;SDS011;17996;51.056;3.656;2023-06-01T02:00:02;24.30;;;16.55;;
27543;SDS011;17996;51.056;3.656;2023-06-01T02:02:31;25.98;;;18.15;;
27543;SDS011;17996;51.056;3.656;2023-06-01T02:04:57;26.92;;;17.67;;
27543;SDS011;17996;51.056;3.656;2023-06-01T02:07:22;24.92;;;16.58;;
27543;SDS011;17996;51.056;3.656;2023-06-01T02:09:48;26.20;;;16.25;;
27543;SDS011;17996;51.056;3.656;2023-06-01T02:12:14;26.08;;;17.30;;
27543;SDS011;17996;51.056;3.656;2023-06-01T02:14:39;27.40;;;16.73;;
27543;SDS011;17996;51.056;3.656;2023-06-01T02:17:05;29.58;;;17.98;;
27543;SDS011;17996;51.056;3.656;2023-06-01T02:19:32;26.90;;;16.83;;
27543;SDS011;17996;51.056;3.656;2023-06-01T02:21:58;27.00;;;18.38;;
27543;SDS011;17996;51.056;3.656;2023-06-01T02:24:23;29.50;;;18.75;;
27543;SDS011;17996;51.056;3.656;2023-06-01T02:26:49;32.47;;;19.27;;
27543;SDS011;17996;51.056;3.656;2023-06-01T02:31:47;30.13;;;19.47;;
27543;SDS011;17996;51.056;3.656;2023-06-01T02:34:18;31.35;;;20.25;;
27543;SDS011;17996;51.056;3.656;2023-06-01T02:36:45;31.60;;;20.33;;
27543;SDS011;17996;51.056;3.656;2023-06-01T02:39:12;36.20;;;21.60;;
27543;SDS011;17996;51.056;3.656;2023-06-01T02:41:37;32.40;;;19.85;;
27543;SDS011;17996;51.056;3.656;2023-06-01T02:44:03;31.92;;;20.08;;
27543;SDS011;17996;51.056;3.656;2023-06-01T02:46:28;32.13;;;21.67;;
27543;SDS011;17996;51.056;3.656;2023-06-01T02:48:54;32.58;;;22.15;;
27543;SDS011;17996;51.056;3.656;2023-06-01T02:51:20;32.67;;;20.80;;
27543;SDS011;17996;51.056;3.656;2023-06-01T02:53:46;33.33;;;23.42;;
27543;SDS011;17996;51.056;3.656;2023-06-01T02:56:11;37.75;;;22.30;;
27543;SDS011;17996;51.056;3.656;2023-06-01T02:58:38;40.53;;;23.10;;
27543;SDS011;17996;51.056;3.656;2023-06-01T03:01:03;33.17;;;23.20;;
27543;SDS011;17996;51.056;3.656;2023-06-01T03:03:29;34.83;;;23.42;;
27543;SDS011;17996;51.056;3.656;2023-06-01T03:05:55;33.88;;;22.70;;
27543;SDS011;17996;51.056;3.656;2023-06-01T03:08:22;34.25;;;23.38;;
27543;SDS011;17996;51.056;3.656;2023-06-01T03:10:49;31.40;;;23.42;;
27543;SDS011;17996;51.056;3.656;2023-06-01T03:13:15;37.75;;;23.23;;
27543;SDS011;17996;51.056;3.656;2023-06-01T03:15:41;39.65;;;24.50;;
27543;SDS011;17996;51.056;3.656;2023-06-01T03:18:07;36.22;;;23.88;;
27543;SDS011;17996;51.056;3.656;2023-06-01T03:20:35;31.52;;;22.88;;
27543;SDS011;17996;51.056;3.656;2023-06-01T03:23:01;40.67;;;25.55;;
27543;SDS011;17996;51.056;3.656;2023-06-01T03:25:27;32.00;;;23.25;;
27543;SDS011;17996;51.056;3.656;2023-06-01T03:27:53;34.95;;;23.02;;
27543;SDS011;17996;51.056;3.656;2023-06-01T03:30:18;38.60;;;24.02;;
27543;SDS011;17996;51.056;3.656;2023-06-01T03:32:44;37.80;;;23.48;;
27543;SDS011;17996;51.056;3.656;2023-06-01T03:35:11;34.45;;;20.65;;
27543;SDS011;17996;51.056;3.656;2023-06-01T03:37:38;35.40;;;22.35;;
27543;SDS011;17996;51.056;3.656;2023-06-01T03:40:05;30.77;;;21.85;;
27543;SDS011;17996;51.056;3.656;2023-06-01T03:42:38;28.98;;;21.00;;
27543;SDS011;17996;51.056;3.656;2023-06-01T03:45:08;33.03;;;21.80;;
27543;SDS011;17996;51.056;3.656;2023-06-01T03:47:35;32.05;;;20.50;;
27543;SDS011;17996;51.056;3.656;2023-06-01T03:50:01;32.58;;;19.50;;
27543;SDS011;17996;51.056;3.656;2023-06-01T03:52:29;26.52;;;20.10;;
27543;SDS011;17996;51.056;3.656;2023-06-01T03:54:55;32.70;;;19.95;;
27543;SDS011;17996;51.056;3.656;2023-06-01T03:57:21;31.50;;;20.50;;
27543;SDS011;17996;51.056;3.656;2023-06-01T03:59:47;28.63;;;20.63;;
27543;SDS011;17996;51.056;3.656;2023-06-01T04:02:13;31.77;;;20.50;;
27543;SDS011;17996;51.056;3.656;2023-06-01T04:04:39;32.55;;;20.30;;
27543;SDS011;17996;51.056;3.656;2023-06-01T04:07:10;37.15;;;22.48;;
27543;SDS011;17996;51.056;3.656;2023-06-01T04:12:05;33.55;;;23.33;;
27543;SDS011;17996;51.056;3.656;2023-06-01T04:14:31;34.45;;;23.25;;
27543;SDS011;17996;51.056;3.656;2023-06-01T04:16:57;40.53;;;22.98;;
27543;SDS011;17996;51.056;3.656;2023-06-01T04:19:23;35.08;;;24.30;;
27543;SDS011;17996;51.056;3.656;2023-06-01T04:21:48;33.30;;;22.58;;
27543;SDS011;17996;51.056;3.656;2023-06-01T04:24:14;35.40;;;23.13;;
27543;SDS011;17996;51.056;3.656;2023-06-01T04:26:41;33.17;;;22.27;;
27543;SDS011;17996;51.056;3.656;2023-06-01T04:29:06;43.22;;;23.20;;
27543;SDS011;17996;51.056;3.656;2023-06-01T04:31:34;38.58;;;23.73;;
27543;SDS011;17996;51.056;3.656;2023-06-01T04:33:59;36.47;;;22.35;;
27543;SDS011;17996;51.056;3.656;2023-06-01T04:36:29;32.60;;;20.42;;
27543;SDS011;17996;51.056;3.656;2023-06-01T04:38:55;33.08;;;21.23;;
27543;SDS011;17996;51.056;3.656;2023-06-01T04:41:22;31.70;;;20.42;;
27543;SDS011;17996;51.056;3.656;2023-06-01T04:43:50;30.60;;;19.65;;
27543;SDS011;17996;51.056;3.656;2023-06-01T04:46:20;34.50;;;19.95;;
27543;SDS011;17996;51.056;3.656;2023-06-01T04:48:51;30.35;;;20.25;;
27543;SDS011;17996;51.056;3.656;2023-06-01T04:51:17;33.90;;;20.38;;
27543;SDS011;17996;51.056;3.656;2023-06-01T04:53:47;35.47;;;20.83;;
27543;SDS011;17996;51.056;3.656;2023-06-01T04:56:17;32.83;;;21.45;;
27543;SDS011;17996;51.056;3.656;2023-06-01T04:58:45;29.98;;;20.27;;
27543;SDS011;17996;51.056;3.656;2023-06-01T05:01:13;33.72;;;21.13;;
27543;SDS011;17996;51.056;3.656;2023-06-01T05:03:40;28.30;;;19.15;;
27543;SDS011;17996;51.056;3.656;2023-06-01T05:06:10;39.10;;;20.67;;
27543;SDS011;17996;51.056;3.656;2023-06-01T05:08:38;32.50;;;20.83;;
27543;SDS011;17996;51.056;3.656;2023-06-01T05:11:05;54.28;;;33.90;;
27543;SDS011;17996;51.056;3.656;2023-06-01T05:13:34;49.33;;;32.30;;
27543;SDS011;17996;51.056;3.656;2023-06-01T05:16:00;36.70;;;23.95;;
27543;SDS011;17996;51.056;3.656;2023-06-01T05:18:26;29.48;;;18.33;;
27543;SDS011;17996;51.056;3.656;2023-06-01T05:20:52;32.30;;;17.60;;
27543;SDS011;17996;51.056;3.656;2023-06-01T05:23:17;28.55;;;16.92;;
27543;SDS011;17996;51.056;3.656;2023-06-01T05:25:43;27.98;;;16.70;;
27543;SDS011;17996;51.056;3.656;2023-06-01T05:28:08;28.67;;;16.33;;
27543;SDS011;17996;51.056;3.656;2023-06-01T05:30:34;29.90;;;16.77;;
27543;SDS011;17996;51.056;3.656;2023-06-01T05:33:00;34.40;;;18.80;;
27543;SDS011;17996;51.056;3.656;2023-06-01T05:35:26;32.67;;;18.25;;
27543;SDS011;17996;51.056;3.656;2023-06-01T05:37:51;30.17;;;17.50;;
27543;SDS011;17996;51.056;3.656;2023-06-01T05:40:17;34.90;;;20.45;;
27543;SDS011;17996;51.056;3.656;2023-06-01T05:42:42;43.17;;;25.80;;
27543;SDS011;17996;51.056;3.656;2023-06-01T05:45:09;89.05;;;31.10;;
27543;SDS011;17996;51.056;3.656;2023-06-01T05:47:34;62.40;;;27.25;;
27543;SDS011;17996;51.056;3.656;2023-06-01T05:50:00;56.17;;;24.88;;
27543;SDS011;17996;51.056;3.656;2023-06-01T05:52:26;34.08;;;22.42;;
27543;SDS011;17996;51.056;3.656;2023-06-01T05:54:52;30.95;;;22.00;;
27543;SDS011;17996;51.056;3.656;2023-06-01T05:57:19;33.88;;;20.75;;
27543;SDS011;17996;51.056;3.656;2023-06-01T05:59:45;28.13;;;18.38;;
27543;SDS011;17996;51.056;3.656;2023-06-01T06:02:11;33.42;;;20.27;;
27543;SDS011;17996;51.056;3.656;2023-06-01T06:04:38;31.55;;;18.67;;
27543;SDS011;17996;51.056;3.656;2023-06-01T06:07:05;28.83;;;19.27;;
27543;SDS011;17996;51.056;3.656;2023-06-01T06:09:30;33.15;;;19.67;;
27543;SDS011;17996;51.056;3.656;2023-06-01T06:11:56;35.65;;;20.88;;
27543;SDS011;17996;51.056;3.656;2023-06-01T06:14:22;48.67;;;28.98;;
27543;SDS011;17996;51.056;3.656;2023-06-01T06:16:48;48.33;;;35.35;;
27543;SDS011;17996;51.056;3.656;2023-06-01T06:19:14;53.92;;;35.58;;
27543;SDS011;17996;51.056;3.656;2023-06-01T06:21:43;38.03;;;26.03;;
27543;SDS011;17996;51.056;3.656;2023-06-01T06:24:08;36.72;;;27.25;;
27543;SDS011;17996;51.056;3.656;2023-06-01T06:26:34;42.72;;;29.77;;
27543;SDS011;17996;51.056;3.656;2023-06-01T06:29:00;43.70;;;28.80;;
27543;SDS011;17996;51.056;3.656;2023-06-01T06:31:26;32.15;;;22.17;;
27543;SDS011;17996;51.056;3.656;2023-06-01T06:33:51;28.67;;;20.52;;
27543;SDS011;17996;51.056;3.656;2023-06-01T06:36:17;30.05;;;19.90;;
27543;SDS011;17996;51.056;3.656;2023-06-01T06:38:43;31.98;;;21.73;;
27543;SDS011;17996;51.056;3.656;2023-06-01T06:41:09;38.97;;;22.35;;
27543;SDS011;17996;51.056;3.656;2023-06-01T06:43:35;32.47;;;20.65;;
27543;SDS011;17996;51.056;3.656;2023-06-01T06:46:02;34.63;;;24.67;;
27543;SDS011;17996;51.056;3.656;2023-06-01T06:48:28;31.00;;;22.63;;
27543;SDS011;17996;51.056;3.656;2023-06-01T06:50:54;36.20;;;22.42;;
27543;SDS011;17996;51.056;3.656;2023-06-01T06:53:20;43.67;;;28.10;;
27543;SDS011;17996;51.056;3.656;2023-06-01T06:55:46;45.92;;;31.08;;
27543;SDS011;17996;51.056;3.656;2023-06-01T06:58:13;33.92;;;26.05;;
27543;SDS011;17996;51.056;3.656;2023-06-01T07:00:39;41.10;;;22.02;;
27543;SDS011;17996;51.056;3.656;2023-06-01T07:03:05;40.70;;;23.00;;
27543;SDS011;17996;51.056;3.656;2023-06-01T07:05:32;32.65;;;19.65;;
27543;SDS011;17996;51.056;3.656;2023-06-01T07:07:57;26.60;;;16.42;;
27543;SDS011;17996;51.056;3.656;2023-06-01T07:10:23;33.50;;;17.17;;
27543;SDS011;17996;51.056;3.656;2023-06-01T07:12:50;27.08;;;16.95;;
27543;SDS011;17996;51.056;3.656;2023-06-01T07:15:16;25.30;;;16.00;;
27543;SDS011;17996;51.056;3.656;2023-06-01T07:17:42;26.35;;;15.23;;
27543;SDS011;17996;51.056;3.656;2023-06-01T07:20:08;20.83;;;13.90;;
27543;SDS011;17996;51.056;3.656;2023-06-01T07:22:37;19.50;;;13.07;;
27543;SDS011;17996;51.056;3.656;2023-06-01T07:25:04;27.17;;;14.13;;
27543;SDS011;17996;51.056;3.656;2023-06-01T07:27:30;24.30;;;14.50;;
27543;SDS011;17996;51.056;3.656;2023-06-01T07:29:57;22.92;;;13.65;;
27543;SDS011;17996;51.056;3.656;2023-06-01T07:32:23;25.27;;;15.32;;
27543;SDS011;17996;51.056;3.656;2023-06-01T07:34:50;25.95;;;14.70;;
27543;SDS011;17996;51.056;3.656;2023-06-01T07:37:16;26.88;;;15.75;;
27543;SDS011;17996;51.056;3.656;2023-06-01T07:39:47;23.58;;;13.77;;
27543;SDS011;17996;51.056;3.656;2023-06-01T07:42:13;22.40;;;13.75;;
27543;SDS011;17996;51.056;3.656;2023-06-01T07:44:40;24.05;;;13.88;;
27543;SDS011;17996;51.056;3.656;2023-06-01T07:47:06;26.55;;;13.65;;
27543;SDS011;17996;51.056;3.656;2023-06-01T07:49:32;20.52;;;13.90;;
27543;SDS011;17996;51.056;3.656;2023-06-01T07:54:27;24.67;;;13.45;;
27543;SDS011;17996;51.056;3.656;2023-06-01T07:56:53;26.83;;;14.50;;
27543;SDS011;17996;51.056;3.656;2023-06-01T07:59:19;25.25;;;13.82;;
27543;SDS011;17996;51.056;3.656;2023-06-01T08:01:46;23.52;;;14.35;;
27543;SDS011;17996;51.056;3.656;2023-06-01T08:04:14;22.70;;;13.30;;
27543;SDS011;17996;51.056;3.656;2023-06-01T08:06:39;30.95;;;17.25;;
27543;SDS011;17996;51.056;3.656;2023-06-01T08:09:06;29.45;;;15.40;;
27543;SDS011;17996;51.056;3.656;2023-06-01T08:11:32;31.92;;;15.15;;
27543;SDS011;17996;51.056;3.656;2023-06-01T08:13:58;34.95;;;15.90;;
27543;SDS011;17996;51.056;3.656;2023-06-01T08:16:33;36.55;;;16.77;;
27543;SDS011;17996;51.056;3.656;2023-06-01T08:18:59;26.67;;;14.25;;
27543;SDS011;17996;51.056;3.656;2023-06-01T08:21:25;31.50;;;15.05;;
27543;SDS011;17996;51.056;3.656;2023-06-01T08:23:54;22.67;;;14.75;;
27543;SDS011;17996;51.056;3.656;2023-06-01T08:26:21;26.23;;;15.73;;
27543;SDS011;17996;51.056;3.656;2023-06-01T08:28:47;25.15;;;15.48;;
27543;SDS011;17996;51.056;3.656;2023-06-01T08:33:43;28.75;;;16.50;;
27543;SDS011;17996;51.056;3.656;2023-06-01T08:36:10;28.38;;;15.65;;
27543;SDS011;17996;51.056;3.656;2023-06-01T08:38:35;28.42;;;15.32;;
27543;SDS011;17996;51.056;3.656;2023-06-01T08:41:03;27.23;;;15.57;;
27543;SDS011;17996;51.056;3.656;2023-06-01T08:43:48;29.92;;;15.90;;
27543;SDS011;17996;51.056;3.656;2023-06-01T08:46:20;31.00;;;16.38;;
27543;SDS011;17996;51.056;3.656;2023-06-01T08:48:48;29.23;;;15.68;;
27543;SDS011;17996;51.056;3.656;2023-06-01T08:51:21;27.38;;;16.52;;
27543;SDS011;17996;51.056;3.656;2023-06-01T08:53:47;28.60;;;16.33;;
27543;SDS011;17996;51.056;3.656;2023-06-01T08:56:14;33.90;;;17.15;;
27543;SDS011;17996;51.056;3.656;2023-06-01T08:58:41;30.30;;;16.67;;
27543;SDS011;17996;51.056;3.656;2023-06-01T09:01:08;25.77;;;15.10;;
27543;SDS011;17996;51.056;3.656;2023-06-01T09:03:35;26.83;;;17.40;;
27543;SDS011;17996;51.056;3.656;2023-06-01T09:06:01;24.55;;;15.80;;
27543;SDS011;17996;51.056;3.656;2023-06-01T09:08:26;30.55;;;15.65;;
27543;SDS011;17996;51.056;3.656;2023-06-01T09:10:52;28.80;;;15.73;;
27543;SDS011;17996;51.056;3.656;2023-06-01T09:13:37;32.58;;;16.42;;
27543;SDS011;17996;51.056;3.656;2023-06-01T09:16:04;24.70;;;15.18;;
27543;SDS011;17996;51.056;3.656;2023-06-01T09:18:31;34.53;;;16.73;;
27543;SDS011;17996;51.056;3.656;2023-06-01T09:21:12;26.90;;;15.48;;
27543;SDS011;17996;51.056;3.656;2023-06-01T09:23:39;28.98;;;17.05;;
27543;SDS011;17996;51.056;3.656;2023-06-01T09:26:06;27.98;;;18.13;;
27543;SDS011;17996;51.056;3.656;2023-06-01T09:34:12;29.73;;;17.25;;
27543;SDS011;17996;51.056;3.656;2023-06-01T09:36:44;28.83;;;17.05;;
27543;SDS011;17996;51.056;3.656;2023-06-01T09:39:11;36.25;;;17.58;;
27543;SDS011;17996;51.056;3.656;2023-06-01T09:44:13;27.92;;;16.30;;
27543;SDS011;17996;51.056;3.656;2023-06-01T09:46:49;33.45;;;17.00;;
27543;SDS011;17996;51.056;3.656;2023-06-01T09:49:20;26.73;;;17.75;;
27543;SDS011;17996;51.056;3.656;2023-06-01T09:51:49;25.48;;;16.23;;
27543;SDS011;17996;51.056;3.656;2023-06-01T09:54:22;22.83;;;17.23;;
27543;SDS011;17996;51.056;3.656;2023-06-01T09:56:52;28.65;;;17.08;;
27543;SDS011;17996;51.056;3.656;2023-06-01T09:59:22;38.65;;;18.38;;
27543;SDS011;17996;51.056;3.656;2023-06-01T10:01:49;36.65;;;18.33;;
27543;SDS011;17996;51.056;3.656;2023-06-01T10:04:18;31.77;;;18.23;;
27543;SDS011;17996;51.056;3.656;2023-06-01T10:06:55;31.05;;;18.08;;
27543;SDS011;17996;51.056;3.656;2023-06-01T10:09:23;30.25;;;17.55;;
27543;SDS011;17996;51.056;3.656;2023-06-01T10:11:52;26.90;;;16.17;;
27543;SDS011;17996;51.056;3.656;2023-06-01T10:14:19;32.00;;;17.17;;
27543;SDS011;17996;51.056;3.656;2023-06-01T10:16:47;29.17;;;18.30;;
27543;SDS011;17996;51.056;3.656;2023-06-01T10:19:18;31.17;;;18.63;;
27543;SDS011;17996;51.056;3.656;2023-06-01T10:21:45;33.63;;;18.77;;
27543;SDS011;17996;51.056;3.656;2023-06-01T10:24:12;27.55;;;18.33;;
27543;SDS011;17996;51.056;3.656;2023-06-01T10:29:41;35.83;;;19.55;;
27543;SDS011;17996;51.056;3.656;2023-06-01T10:35:55;32.60;;;19.58;;
27543;SDS011;17996;51.056;3.656;2023-06-01T10:40:45;28.42;;;18.83;;
27543;SDS011;17996;51.056;3.656;2023-06-01T10:46:02;31.42;;;19.35;;
27543;SDS011;17996;51.056;3.656;2023-06-01T10:51:21;36.50;;;19.90;;
27543;SDS011;17996;51.056;3.656;2023-06-01T10:53:49;29.05;;;19.45;;
27543;SDS011;17996;51.056;3.656;2023-06-01T10:56:22;30.10;;;18.25;;
27543;SDS011;17996;51.056;3.656;2023-06-01T11:01:50;36.17;;;19.00;;
27543;SDS011;17996;51.056;3.656;2023-06-01T11:04:16;29.33;;;18.58;;
27543;SDS011;17996;51.056;3.656;2023-06-01T11:07:14;25.10;;;17.80;;
27543;SDS011;17996;51.056;3.656;2023-06-01T11:10:02;29.85;;;18.40;;
27543;SDS011;17996;51.056;3.656;2023-06-01T11:12:34;29.95;;;18.30;;
27543;SDS011;17996;51.056;3.656;2023-06-01T11:15:34;24.30;;;17.40;;
27543;SDS011;17996;51.056;3.656;2023-06-01T11:18:16;26.05;;;16.67;;
27543;SDS011;17996;51.056;3.656;2023-06-01T11:21:04;32.53;;;18.20;;
27543;SDS011;17996;51.056;3.656;2023-06-01T11:23:32;32.80;;;19.70;;
27543;SDS011;17996;51.056;3.656;2023-06-01T11:25:59;38.33;;;19.42;;
27543;SDS011;17996;51.056;3.656;2023-06-01T11:28:28;29.85;;;19.33;;
27543;SDS011;17996;51.056;3.656;2023-06-01T11:30:56;32.03;;;19.00;;
27543;SDS011;17996;51.056;3.656;2023-06-01T11:33:23;33.15;;;18.00;;
27543;SDS011;17996;51.056;3.656;2023-06-01T11:36:00;28.92;;;18.00;;
27543;SDS011;17996;51.056;3.656;2023-06-01T11:38:33;33.33;;;19.45;;
27543;SDS011;17996;51.056;3.656;2023-06-01T11:40:59;31.23;;;19.48;;
27543;SDS011;17996;51.056;3.656;2023-06-01T11:43:29;31.33;;;18.80;;
27543;SDS011;17996;51.056;3.656;2023-06-01T11:46:02;32.83;;;18.55;;
27543;SDS011;17996;51.056;3.656;2023-06-01T11:48:29;33.30;;;18.73;;
27543;SDS011;17996;51.056;3.656;2023-06-01T11:50:55;28.42;;;18.30;;
27543;SDS011;17996;51.056;3.656;2023-06-01T11:53:23;28.98;;;18.48;;
27543;SDS011;17996;51.056;3.656;2023-06-01T11:55:49;39.45;;;21.10;;
27543;SDS011;17996;51.056;3.656;2023-06-01T11:58:20;38.17;;;20.60;;
27543;SDS011;17996;51.056;3.656;2023-06-01T12:00:50;32.72;;;18.17;;
27543;SDS011;17996;51.056;3.656;2023-06-01T12:03:16;33.95;;;19.85;;
27543;SDS011;17996;51.056;3.656;2023-06-01T12:05:42;65.90;;;21.38;;
27543;SDS011;17996;51.056;3.656;2023-06-01T12:08:13;33.75;;;21.23;;
27543;SDS011;17996;51.056;3.656;2023-06-01T12:10:41;34.58;;;20.70;;
27543;SDS011;17996;51.056;3.656;2023-06-01T12:13:09;44.35;;;20.17;;
27543;SDS011;17996;51.056;3.656;2023-06-01T12:15:36;37.35;;;22.02;;
27543;SDS011;17996;51.056;3.656;2023-06-01T12:18:02;44.75;;;24.13;;
27543;SDS011;17996;51.056;3.656;2023-06-01T12:20:32;35.38;;;23.58;;
27543;SDS011;17996;51.056;3.656;2023-06-01T12:23:23;36.08;;;25.08;;
27543;SDS011;17996;51.056;3.656;2023-06-01T12:28:15;39.03;;;24.23;;
27543;SDS011;17996;51.056;3.656;2023-06-01T12:30:43;33.60;;;22.33;;
27543;SDS011;17996;51.056;3.656;2023-06-01T12:33:09;28.67;;;20.63;;
27543;SDS011;17996;51.056;3.656;2023-06-01T12:35:54;32.60;;;22.80;;
27543;SDS011;17996;51.056;3.656;2023-06-01T12:38:20;30.98;;;21.05;;
27543;SDS011;17996;51.056;3.656;2023-06-01T12:40:47;35.05;;;20.60;;
27543;SDS011;17996;51.056;3.656;2023-06-01T12:43:43;34.83;;;20.95;;
27543;SDS011;17996;51.056;3.656;2023-06-01T12:46:16;42.33;;;22.73;;
27543;SDS011;17996;51.056;3.656;2023-06-01T12:48:46;32.17;;;21.25;;
27543;SDS011;17996;51.056;3.656;2023-06-01T12:51:14;30.73;;;20.77;;
27543;SDS011;17996;51.056;3.656;2023-06-01T12:53:40;34.97;;;20.48;;
27543;SDS011;17996;51.056;3.656;2023-06-01T12:56:07;32.80;;;19.98;;
27543;SDS011;17996;51.056;3.656;2023-06-01T12:58:33;36.55;;;19.80;;
27543;SDS011;17996;51.056;3.656;2023-06-01T13:00:59;28.88;;;18.67;;
27543;SDS011;17996;51.056;3.656;2023-06-01T13:03:24;30.63;;;18.20;;
27543;SDS011;17996;51.056;3.656;2023-06-01T13:05:50;35.50;;;19.85;;
27543;SDS011;17996;51.056;3.656;2023-06-01T13:08:17;35.03;;;18.17;;
27543;SDS011;17996;51.056;3.656;2023-06-01T13:10:43;39.20;;;19.25;;
27543;SDS011;17996;51.056;3.656;2023-06-01T13:13:09;30.98;;;16.23;;
27543;SDS011;17996;51.056;3.656;2023-06-01T13:15:38;26.80;;;17.60;;
27543;SDS011;17996;51.056;3.656;2023-06-01T13:20:30;26.20;;;15.45;;
27543;SDS011;17996;51.056;3.656;2023-06-01T13:22:56;25.40;;;16.05;;
27543;SDS011;17996;51.056;3.656;2023-06-01T13:25:22;23.15;;;14.65;;
27543;SDS011;17996;51.056;3.656;2023-06-01T13:27:48;38.30;;;15.88;;
27543;SDS011;17996;51.056;3.656;2023-06-01T13:30:14;25.13;;;14.30;;
27543;SDS011;17996;51.056;3.656;2023-06-01T13:32:40;21.60;;;13.45;;
27543;SDS011;17996;51.056;3.656;2023-06-01T13:35:05;25.58;;;13.82;;
27543;SDS011;17996;51.056;3.656;2023-06-01T13:37:31;28.48;;;12.95;;
27543;SDS011;17996;51.056;3.656;2023-06-01T13:39:57;23.75;;;12.48;;
27543;SDS011;17996;51.056;3.656;2023-06-01T13:42:23;26.42;;;11.77;;
27543;SDS011;17996;51.056;3.656;2023-06-01T13:44:49;19.55;;;11.23;;
27543;SDS011;17996;51.056;3.656;2023-06-01T13:47:15;29.52;;;10.95;;
27543;SDS011;17996;51.056;3.656;2023-06-01T13:49:43;29.38;;;12.05;;
27543;SDS011;17996;51.056;3.656;2023-06-01T13:52:09;33.30;;;11.55;;
27543;SDS011;17996;51.056;3.656;2023-06-01T13:54:36;20.80;;;10.93;;
27543;SDS011;17996;51.056;3.656;2023-06-01T13:57:02;24.73;;;10.80;;
27543;SDS011;17996;51.056;3.656;2023-06-01T13:59:28;22.75;;;12.23;;
27543;SDS011;17996;51.056;3.656;2023-06-01T14:01:58;20.92;;;11.38;;
27543;SDS011;17996;51.056;3.656;2023-06-01T14:04:24;28.17;;;12.10;;
27543;SDS011;17996;51.056;3.656;2023-06-01T14:06:50;25.20;;;11.77;;
27543;SDS011;17996;51.056;3.656;2023-06-01T14:09:16;24.50;;;11.80;;
27543;SDS011;17996;51.056;3.656;2023-06-01T14:11:42;25.05;;;12.48;;
27543;SDS011;17996;51.056;3.656;2023-06-01T14:14:08;20.40;;;11.00;;
27543;SDS011;17996;51.056;3.656;2023-06-01T14:16:33;19.58;;;11.10;;
27543;SDS011;17996;51.056;3.656;2023-06-01T14:18:59;22.35;;;11.40;;
27543;SDS011;17996;51.056;3.656;2023-06-01T14:21:25;19.92;;;10.70;;
27543;SDS011;17996;51.056;3.656;2023-06-01T14:23:51;20.20;;;11.20;;
27543;SDS011;17996;51.056;3.656;2023-06-01T14:26:17;20.55;;;10.13;;
27543;SDS011;17996;51.056;3.656;2023-06-01T14:28:42;22.23;;;10.27;;
27543;SDS011;17996;51.056;3.656;2023-06-01T14:31:08;21.20;;;10.20;;
27543;SDS011;17996;51.056;3.656;2023-06-01T14:33:34;22.77;;;10.25;;
27543;SDS011;17996;51.056;3.656;2023-06-01T14:35:59;23.60;;;10.88;;
27543;SDS011;17996;51.056;3.656;2023-06-01T14:38:25;20.88;;;9.63;;
27543;SDS011;17996;51.056;3.656;2023-06-01T14:40:51;19.75;;;10.02;;
27543;SDS011;17996;51.056;3.656;2023-06-01T14:43:16;20.23;;;9.10;;
27543;SDS011;17996;51.056;3.656;2023-06-01T14:45:42;21.75;;;9.30;;
27543;SDS011;17996;51.056;3.656;2023-06-01T14:48:08;15.57;;;9.38;;
27543;SDS011;17996;51.056;3.656;2023-06-01T14:50:34;17.58;;;9.30;;
27543;SDS011;17996;51.056;3.656;2023-06-01T14:53:00;17.17;;;9.23;;
27543;SDS011;17996;51.056;3.656;2023-06-01T14:55:26;24.85;;;9.18;;
27543;SDS011;17996;51.056;3.656;2023-06-01T14:57:52;19.08;;;9.13;;
27543;SDS011;17996;51.056;3.656;2023-06-01T15:00:18;16.80;;;8.73;;
27543;SDS011;17996;51.056;3.656;2023-06-01T15:02:44;22.55;;;8.95;;
27543;SDS011;17996;51.056;3.656;2023-06-01T15:05:10;14.30;;;7.60;;
27543;SDS011;17996;51.056;3.656;2023-06-01T15:07:36;19.55;;;7.97;;
27543;SDS011;17996;51.056;3.656;2023-06-01T15:10:03;19.67;;;8.80;;
27543;SDS011;17996;51.056;3.656;2023-06-01T15:12:29;18.25;;;7.53;;
27543;SDS011;17996;51.056;3.656;2023-06-01T15:14:55;18.63;;;6.70;;